createdAt,value
2023-03-16T00:00:51.586Z,1.10
2023-03-16T00:03:20.562Z,1.00
2023-03-16T00:05:49.923Z,1.00
2023-03-16T00:08:19.496Z,0.90
2023-03-16T00:10:48.888Z,0.90
2023-03-16T00:13:18.293Z,1.00
2023-03-16T00:15:53.613Z,0.80
2023-03-16T00:18:22.944Z,0.70
2023-03-16T00:20:55.690Z,0.80
2023-03-16T00:23:27.527Z,0.60
2023-03-16T00:25:59.487Z,0.40
2023-03-16T00:28:30.304Z,0.30
2023-03-16T00:31:00.395Z,0.00
2023-03-16T00:33:30.012Z,0.00
2023-03-16T00:36:03.192Z,0.50
2023-03-16T00:38:34.792Z,0.90
2023-03-16T00:41:04.178Z,1.00
2023-03-16T00:43:40.838Z,1.10
2023-03-16T00:46:11.802Z,1.20
2023-03-16T00:48:42.860Z,1.30
2023-03-16T00:51:13.743Z,1.40
2023-03-16T00:53:43.669Z,1.40
2023-03-16T00:56:13.802Z,1.30
2023-03-16T00:58:43.914Z,1.30
2023-03-16T01:01:16.335Z,1.20
2023-03-16T01:03:44.911Z,1.30
2023-03-16T01:06:15.407Z,1.40
2023-03-16T01:08:44.385Z,1.30
2023-03-16T01:11:16.358Z,1.20
2023-03-16T01:13:47.096Z,1.20
2023-03-16T01:16:18.871Z,1.10
2023-03-16T01:18:47.860Z,1.10
2023-03-16T01:21:16.077Z,1.10
2023-03-16T01:23:44.981Z,1.20
2023-03-16T01:26:15.235Z,1.20
2023-03-16T01:28:44.468Z,1.10
2023-03-16T01:31:20.548Z,1.20
2023-03-16T01:33:49.346Z,1.30
2023-03-16T01:36:20.072Z,1.20
2023-03-16T01:38:48.738Z,1.30
2023-03-16T01:41:18.339Z,1.30
2023-03-16T01:43:46.977Z,1.30
2023-03-16T01:46:21.901Z,1.30
2023-03-16T01:49:09.928Z,1.40
2023-03-16T01:51:44.024Z,1.30
2023-03-16T01:54:20.334Z,1.30
2023-03-16T01:56:55.842Z,1.30
2023-03-16T01:59:29.021Z,1.20
2023-03-16T02:01:59.603Z,1.20
2023-03-16T02:04:43.376Z,1.20
2023-03-16T02:07:12.212Z,1.20
2023-03-16T02:09:44.173Z,1.20
2023-03-16T02:12:18.090Z,1.10
2023-03-16T02:14:47.098Z,1.10
2023-03-16T02:17:19.307Z,1.00
2023-03-16T02:19:57.626Z,0.90
2023-03-16T02:22:26.430Z,0.70
2023-03-16T02:24:55.136Z,0.60
2023-03-16T02:27:35.168Z,0.50
2023-03-16T02:30:12.189Z,0.40
2023-03-16T02:32:41.917Z,0.50
2023-03-16T02:35:11.311Z,0.30
2023-03-16T02:37:40.709Z,0.30
2023-03-16T02:40:25.310Z,0.10
2023-03-16T02:43:02.975Z,0.00
2023-03-16T02:45:37.538Z,-0.10
2023-03-16T02:48:14.820Z,-0.30
2023-03-16T02:50:48.539Z,-0.30
2023-03-16T02:53:17.799Z,-0.20
2023-03-16T02:55:46.457Z,-0.30
2023-03-16T02:58:15.465Z,-0.50
2023-03-16T03:00:45.835Z,-0.50
2023-03-16T03:03:14.381Z,-0.50
2023-03-16T03:05:42.783Z,-0.30
2023-03-16T03:08:11.053Z,-0.10
2023-03-16T03:10:39.381Z,0.10
2023-03-16T03:13:10.948Z,0.40
2023-03-16T03:15:40.096Z,0.50
2023-03-16T03:18:09.732Z,0.50
2023-03-16T03:20:38.047Z,0.60
2023-03-16T03:23:06.208Z,0.50
2023-03-16T03:25:35.393Z,0.50
2023-03-16T03:28:05.895Z,0.20
2023-03-16T03:30:34.260Z,-0.10
2023-03-16T03:33:02.865Z,-0.10
2023-03-16T03:35:32.788Z,0.00
2023-03-16T03:38:01.715Z,-0.10
2023-03-16T03:40:30.262Z,-0.20
2023-03-16T03:43:01.504Z,-0.20
2023-03-16T03:45:29.862Z,-0.20
2023-03-16T03:47:58.629Z,-0.30
2023-03-16T03:50:27.121Z,-0.50
2023-03-16T03:52:56.918Z,-0.80
2023-03-16T03:55:25.295Z,-0.80
2023-03-16T03:57:54.008Z,-0.70
2023-03-16T04:00:23.919Z,-0.50
2023-03-16T04:02:52.342Z,-0.50
2023-03-16T04:05:20.749Z,-0.70
2023-03-16T04:07:51.290Z,-0.50
2023-03-16T04:10:21.079Z,-0.50
2023-03-16T04:12:49.321Z,-0.40
2023-03-16T04:15:17.706Z,-0.30
2023-03-16T04:17:46.096Z,-0.30
2023-03-16T04:20:16.114Z,-0.40
2023-03-16T04:22:44.502Z,-0.60
2023-03-16T04:25:14.858Z,-0.50
2023-03-16T04:27:46.876Z,-0.40
2023-03-16T04:30:16.852Z,-0.30
2023-03-16T04:32:45.229Z,-0.20
2023-03-16T04:35:15.689Z,-0.20
2023-03-16T04:37:44.143Z,-0.20
2023-03-16T04:40:21.128Z,0.10
2023-03-16T04:42:51.088Z,0.00
2023-03-16T04:45:19.544Z,-0.10
2023-03-16T04:47:49.662Z,-0.20
2023-03-16T04:50:18.565Z,-0.30
2023-03-16T04:52:46.867Z,-0.50
2023-03-16T04:55:15.140Z,-0.60
2023-03-16T04:57:43.303Z,-0.80
2023-03-16T05:00:19.172Z,-0.80
2023-03-16T05:02:47.397Z,-0.90
2023-03-16T05:05:16.290Z,-0.80
2023-03-16T05:07:45.144Z,-0.80
2023-03-16T05:10:15.064Z,-0.90
2023-03-16T05:12:43.734Z,-0.50
2023-03-16T05:15:13.844Z,-0.50
2023-03-16T05:17:42.902Z,-0.60
2023-03-16T05:20:15.872Z,-0.60
2023-03-16T05:22:46.250Z,-0.50
2023-03-16T05:25:15.549Z,-0.50
2023-03-16T05:27:44.389Z,-0.50
2023-03-16T05:30:16.374Z,-0.60
2023-03-16T05:32:45.299Z,-0.60
2023-03-16T05:35:14.353Z,-0.70
2023-03-16T05:37:43.042Z,-0.70
2023-03-16T05:40:14.331Z,-0.70
2023-03-16T05:42:42.484Z,-0.70
2023-03-16T05:45:11.974Z,-0.80
2023-03-16T05:47:42.309Z,-0.80
2023-03-16T05:50:12.723Z,-0.90
2023-03-16T05:52:41.646Z,-0.80
2023-03-16T05:55:10.613Z,-0.80
2023-03-16T05:57:39.316Z,-0.80
2023-03-16T06:00:15.363Z,-0.80
2023-03-16T06:02:46.782Z,-0.80
2023-03-16T06:05:15.431Z,-0.90
2023-03-16T06:07:43.736Z,-0.80
2023-03-16T06:10:13.505Z,-0.70
2023-03-16T06:12:42.648Z,-0.50
2023-03-16T06:15:12.422Z,-0.30
2023-03-16T06:17:41.514Z,-0.10
2023-03-16T06:20:14.357Z,0.00
2023-03-16T06:22:43.583Z,0.20
2023-03-16T06:25:14.166Z,0.40
2023-03-16T06:27:42.686Z,0.50
2023-03-16T06:30:13.147Z,0.70
2023-03-16T06:32:43.326Z,0.80
2023-03-16T06:35:14.355Z,0.90
2023-03-16T06:37:43.086Z,1.10
2023-03-16T06:40:13.532Z,1.20
2023-03-16T06:42:42.155Z,1.40
2023-03-16T06:45:13.762Z,1.50
2023-03-16T06:47:43.546Z,1.80
2023-03-16T06:50:15.226Z,2.00
2023-03-16T06:52:43.682Z,2.30
2023-03-16T06:55:12.887Z,2.50
2023-03-16T06:57:41.781Z,2.50
2023-03-16T07:00:12.267Z,2.50
2023-03-16T07:02:41.147Z,2.80
2023-03-16T07:05:13.224Z,2.90
2023-03-16T07:07:44.001Z,2.80
2023-03-16T07:10:13.916Z,2.60
2023-03-16T07:12:42.774Z,2.50
2023-03-16T07:15:12.170Z,2.50
2023-03-16T07:17:40.892Z,2.40
2023-03-16T07:20:11.198Z,2.10
2023-03-16T07:22:41.807Z,2.20
2023-03-16T07:25:13.905Z,2.10
2023-03-16T07:27:43.871Z,2.20
2023-03-16T07:30:14.232Z,2.10
2023-03-16T07:32:42.760Z,2.30
2023-03-16T07:35:11.909Z,2.50
2023-03-16T07:37:40.376Z,2.50
2023-03-16T07:40:09.991Z,2.50
2023-03-16T07:42:39.603Z,2.60
2023-03-16T07:45:09.281Z,2.80
2023-03-16T07:47:37.588Z,3.10
2023-03-16T07:50:06.758Z,2.80
2023-03-16T07:52:37.456Z,3.00
2023-03-16T07:55:06.831Z,3.10
2023-03-16T07:57:35.332Z,3.00
2023-03-16T08:00:07.120Z,3.30
2023-03-16T08:02:35.537Z,3.40
2023-03-16T08:05:04.145Z,3.40
2023-03-16T08:07:32.460Z,3.40
2023-03-16T08:10:01.363Z,3.70
2023-03-16T08:12:29.756Z,3.50
2023-03-16T08:14:58.007Z,3.50
2023-03-16T08:17:28.404Z,3.30
2023-03-16T08:19:56.763Z,3.50
2023-03-16T08:22:25.672Z,3.70
2023-03-16T08:24:53.950Z,3.80
2023-03-16T08:27:22.284Z,4.00
2023-03-16T08:29:54.212Z,4.00
2023-03-16T08:32:22.775Z,4.20
2023-03-16T08:34:53.867Z,4.30
2023-03-16T08:37:22.157Z,4.50
2023-03-16T08:39:51.729Z,4.60
2023-03-16T08:42:21.154Z,4.70
2023-03-16T08:44:49.514Z,4.70
2023-03-16T08:47:18.649Z,4.70
2023-03-16T08:49:47.065Z,4.70
2023-03-16T08:52:16.726Z,4.80
2023-03-16T08:55:01.479Z,4.80
2023-03-16T08:57:31.188Z,4.70
2023-03-16T09:00:13.202Z,5.20
2023-03-16T09:02:42.245Z,5.30
2023-03-16T09:05:11.657Z,5.00
2023-03-16T09:07:42.375Z,4.90
2023-03-16T09:10:16.040Z,4.90
2023-03-16T09:12:44.957Z,5.00
2023-03-16T09:15:14.934Z,5.10
2023-03-16T09:17:45.216Z,5.20
2023-03-16T09:20:22.482Z,4.60
2023-03-16T09:22:56.315Z,4.70
2023-03-16T09:25:28.218Z,5.00
2023-03-16T09:27:56.717Z,4.80
2023-03-16T09:30:26.840Z,5.10
2023-03-16T09:32:55.407Z,4.90
2023-03-16T09:35:23.824Z,5.00
2023-03-16T09:38:05.471Z,5.40
2023-03-16T09:40:38.286Z,5.70
2023-03-16T09:43:28.204Z,5.80
2023-03-16T09:46:05.937Z,5.70
2023-03-16T09:48:36.811Z,5.70
2023-03-16T09:51:08.535Z,6.00
2023-03-16T09:53:39.617Z,5.60
2023-03-16T09:56:30.750Z,5.70
2023-03-16T09:59:19.160Z,6.10
2023-03-16T10:02:19.081Z,6.10
2023-03-16T10:08:02.385Z,6.50
2023-03-16T10:10:49.428Z,6.70
2023-03-16T10:13:33.180Z,6.90
2023-03-16T10:16:06.399Z,7.00
2023-03-16T10:18:41.366Z,7.10
2023-03-16T10:21:14.656Z,6.80
2023-03-16T10:23:44.334Z,6.90
2023-03-16T10:26:19.787Z,7.40
2023-03-16T10:28:49.805Z,6.70
2023-03-16T10:31:21.353Z,6.70
2023-03-16T10:33:52.426Z,7.20
2023-03-16T10:36:28.463Z,7.20
2023-03-16T10:39:00.538Z,7.60
2023-03-16T10:41:33.767Z,6.80
2023-03-16T10:44:09.052Z,7.20
2023-03-16T10:46:40.353Z,7.00
2023-03-16T10:49:23.598Z,6.80
2023-03-16T10:51:52.586Z,7.60
2023-03-16T10:54:28.149Z,7.40
2023-03-16T10:56:56.791Z,7.30
2023-03-16T10:59:34.519Z,8.00
2023-03-16T11:02:15.286Z,8.80
2023-03-16T11:04:43.777Z,9.50
2023-03-16T11:07:19.304Z,8.90
2023-03-16T11:09:48.342Z,8.80
2023-03-16T11:12:24.213Z,8.90
2023-03-16T11:14:56.177Z,8.90
2023-03-16T11:17:36.140Z,9.30
2023-03-16T11:20:14.602Z,9.90
2023-03-16T11:22:47.226Z,9.10
2023-03-16T11:25:20.378Z,8.60
2023-03-16T11:27:54.466Z,8.90
2023-03-16T11:30:31.044Z,8.60
2023-03-16T11:33:00.675Z,9.00
2023-03-16T11:35:52.727Z,9.10
2023-03-16T11:38:36.182Z,9.40
2023-03-16T11:41:09.255Z,9.00
2023-03-16T11:43:52.879Z,9.30
2023-03-16T11:46:26.193Z,9.40
2023-03-16T11:49:10.245Z,9.10
2023-03-16T11:51:49.006Z,9.00
2023-03-16T11:54:34.112Z,8.80
2023-03-16T11:57:13.637Z,9.00
2023-03-16T12:00:05.493Z,9.30
2023-03-16T12:03:09.455Z,8.80
2023-03-16T12:05:49.394Z,8.70
2023-03-16T12:08:47.946Z,8.60
2023-03-16T12:11:22.464Z,8.80
2023-03-16T12:14:09.091Z,8.80
2023-03-16T12:16:49.775Z,7.80
2023-03-16T12:19:24.893Z,8.10
2023-03-16T12:22:04.309Z,8.50
2023-03-16T12:24:40.126Z,8.90
2023-03-16T12:27:16.024Z,8.60
2023-03-16T12:29:59.971Z,8.20
2023-03-16T12:32:40.267Z,8.30
2023-03-16T12:35:24.456Z,8.20
2023-03-16T12:38:07.766Z,8.30
2023-03-16T12:40:44.571Z,8.00
2023-03-16T12:43:25.914Z,8.10
2023-03-16T12:46:00.749Z,8.20
2023-03-16T12:48:33.295Z,8.20
2023-03-16T12:51:05.619Z,8.20
2023-03-16T12:53:43.874Z,8.20
2023-03-16T12:56:15.256Z,8.30
2023-03-16T12:58:47.093Z,7.90
2023-03-16T13:01:18.565Z,8.00
2023-03-16T13:03:51.173Z,7.90
2023-03-16T13:06:24.613Z,7.60
2023-03-16T13:08:56.923Z,7.80
2023-03-16T13:11:25.382Z,8.00
2023-03-16T13:14:08.287Z,8.00
2023-03-16T13:16:38.480Z,8.00
2023-03-16T13:19:25.444Z,8.20
2023-03-16T13:22:06.887Z,8.10
2023-03-16T13:24:41.140Z,7.50
2023-03-16T13:27:24.702Z,7.50
2023-03-16T13:29:58.988Z,7.60
2023-03-16T13:32:33.995Z,7.70
2023-03-16T13:35:06.119Z,7.90
2023-03-16T13:37:35.846Z,7.70
2023-03-16T13:40:05.457Z,7.90
2023-03-16T13:42:36.831Z,8.00
2023-03-16T13:45:15.386Z,8.10
2023-03-16T13:47:45.406Z,8.20
2023-03-16T13:50:15.378Z,8.10
2023-03-16T13:52:51.744Z,7.80
2023-03-16T13:55:27.782Z,7.90
2023-03-16T13:57:56.028Z,8.20
2023-03-16T14:00:26.444Z,8.10
2023-03-16T14:02:56.434Z,8.30
2023-03-16T14:05:27.500Z,8.20
2023-03-16T14:08:00.655Z,7.90
2023-03-16T14:10:33.522Z,7.90
2023-03-16T14:13:10.046Z,7.80
2023-03-16T14:15:41.475Z,7.70
2023-03-16T14:18:16.496Z,7.70
2023-03-16T14:20:44.964Z,7.70
2023-03-16T14:23:22.022Z,7.70
2023-03-16T14:25:50.895Z,7.50
2023-03-16T14:28:22.448Z,7.60
2023-03-16T14:31:02.545Z,7.40
2023-03-16T14:33:33.068Z,7.30
2023-03-16T14:36:11.165Z,7.50
2023-03-16T14:38:41.891Z,7.40
2023-03-16T14:41:23.630Z,7.40
2023-03-16T14:43:55.736Z,7.20
2023-03-16T14:46:29.992Z,7.20
2023-03-16T14:49:04.020Z,7.30
2023-03-16T14:51:33.081Z,7.20
2023-03-16T14:54:03.527Z,7.30
2023-03-16T14:56:37.487Z,7.20
2023-03-16T14:59:05.672Z,7.20
2023-03-16T15:01:34.304Z,7.30
2023-03-16T15:04:03.482Z,7.10
2023-03-16T15:06:41.488Z,7.20
2023-03-16T15:09:28.088Z,7.20
2023-03-16T15:11:58.213Z,7.10
2023-03-16T15:14:47.318Z,7.10
2023-03-16T15:17:16.777Z,7.00
2023-03-16T15:19:45.374Z,7.10
2023-03-16T15:22:14.539Z,7.20
2023-03-16T15:24:44.593Z,7.10
2023-03-16T15:27:21.185Z,7.10
2023-03-16T15:29:49.625Z,7.10
2023-03-16T15:32:18.908Z,7.20
2023-03-16T15:34:47.977Z,7.10
2023-03-16T15:37:17.433Z,7.20
2023-03-16T15:39:47.985Z,7.30
2023-03-16T15:42:19.262Z,7.30
2023-03-16T15:44:53.190Z,7.30
2023-03-16T15:47:28.110Z,7.10
2023-03-16T15:49:56.752Z,7.10
2023-03-16T15:52:39.274Z,7.10
2023-03-16T15:55:16.686Z,6.90
2023-03-16T15:57:46.350Z,6.80
2023-03-16T16:00:35.445Z,6.90
2023-03-16T16:03:05.424Z,6.90
2023-03-16T16:05:34.514Z,6.90
2023-03-16T16:08:03.101Z,6.90
2023-03-16T16:10:34.114Z,6.80
2023-03-16T16:13:02.928Z,6.90
2023-03-16T16:15:34.066Z,6.90
2023-03-16T16:18:20.908Z,6.90
2023-03-16T16:20:51.399Z,6.90
2023-03-16T16:23:20.062Z,6.80
2023-03-16T16:25:51.584Z,6.90
2023-03-16T16:28:22.687Z,6.80
2023-03-16T16:30:51.748Z,6.90
2023-03-16T16:33:25.521Z,6.80
2023-03-16T16:35:55.246Z,6.70
2023-03-16T16:38:23.792Z,6.70
2023-03-16T16:40:54.820Z,6.70
2023-03-16T16:43:32.231Z,6.70
2023-03-16T16:46:01.951Z,6.80
2023-03-16T16:48:34.403Z,6.60
2023-03-16T16:51:02.846Z,6.60
2023-03-16T16:53:31.689Z,6.60
2023-03-16T16:56:01.883Z,6.70
2023-03-16T16:58:31.129Z,6.60
2023-03-16T17:00:59.747Z,6.50
2023-03-16T17:03:30.779Z,6.50
2023-03-16T17:06:00.063Z,6.60
2023-03-16T17:08:28.620Z,6.50
2023-03-16T17:10:57.260Z,6.40
2023-03-16T17:13:30.819Z,6.40
2023-03-16T17:16:00.222Z,6.30
2023-03-16T17:18:32.031Z,6.30
2023-03-16T17:21:00.515Z,6.20
2023-03-16T17:23:32.677Z,6.30
2023-03-16T17:26:04.323Z,6.10
2023-03-16T17:28:38.773Z,6.10
2023-03-16T17:31:07.419Z,6.00
2023-03-16T17:33:35.823Z,6.00
2023-03-16T17:36:04.849Z,5.90
2023-03-16T17:38:33.773Z,6.00
2023-03-16T17:41:02.981Z,6.00
2023-03-16T17:43:32.917Z,6.00
2023-03-16T17:46:04.395Z,6.00
2023-03-16T17:48:33.613Z,6.00
2023-03-16T17:51:02.343Z,6.00
2023-03-16T17:53:30.892Z,6.00
2023-03-16T17:55:59.105Z,6.00
2023-03-16T17:58:31.562Z,5.90
2023-03-16T18:01:01.512Z,5.90
2023-03-16T18:03:31.574Z,6.00
2023-03-16T18:06:03.692Z,6.00
2023-03-16T18:08:37.983Z,6.00
2023-03-16T18:11:13.890Z,6.00
2023-03-16T18:13:45.777Z,5.90
2023-03-16T18:16:19.995Z,5.90
2023-03-16T18:18:50.296Z,5.90
2023-03-16T18:21:20.254Z,5.80
2023-03-16T18:23:52.492Z,5.80
2023-03-16T18:26:21.813Z,5.80
2023-03-16T18:28:50.564Z,5.80
2023-03-16T18:31:22.312Z,5.80
2023-03-16T18:33:54.956Z,5.80
2023-03-16T18:36:27.590Z,5.80
2023-03-16T18:38:58.021Z,5.80
2023-03-16T18:41:28.098Z,5.70
2023-03-16T18:43:58.668Z,5.80
2023-03-16T18:46:29.166Z,5.70
2023-03-16T18:49:02.069Z,5.80
2023-03-16T18:51:31.202Z,5.70
2023-03-16T18:53:59.690Z,5.70
2023-03-16T18:56:29.991Z,5.60
2023-03-16T18:58:59.049Z,5.70
2023-03-16T19:01:30.538Z,5.60
2023-03-16T19:04:02.065Z,5.60
2023-03-16T19:06:33.104Z,5.60
2023-03-16T19:09:06.273Z,5.60
2023-03-16T19:11:37.365Z,5.50
2023-03-16T19:14:15.578Z,5.50
2023-03-16T19:16:43.990Z,5.50
2023-03-16T19:19:15.272Z,5.50
2023-03-16T19:21:44.016Z,5.50
2023-03-16T19:24:22.639Z,5.40
2023-03-16T19:26:51.462Z,5.40
2023-03-16T19:29:33.287Z,5.40
2023-03-16T19:32:03.427Z,5.40
2023-03-16T19:34:46.837Z,5.40
2023-03-16T19:37:18.316Z,5.40
2023-03-16T19:39:47.209Z,5.40
2023-03-16T19:42:22.241Z,5.40
2023-03-16T19:45:05.960Z,5.40
2023-03-16T19:47:35.855Z,5.30
2023-03-16T19:50:14.414Z,5.30
2023-03-16T19:52:44.052Z,5.30
2023-03-16T19:55:17.003Z,5.30
2023-03-16T19:57:46.493Z,5.20
2023-03-16T20:00:21.818Z,5.20
2023-03-16T20:02:51.723Z,5.20
2023-03-16T20:05:23.840Z,5.30
2023-03-16T20:07:52.167Z,5.30
2023-03-16T20:10:23.671Z,5.20
2023-03-16T20:12:54.638Z,5.20
2023-03-16T20:15:24.356Z,5.30
2023-03-16T20:17:53.523Z,5.20
2023-03-16T20:20:27.467Z,5.20
2023-03-16T20:22:58.769Z,5.30
2023-03-16T20:25:31.697Z,5.30
2023-03-16T20:28:02.690Z,5.40
2023-03-16T20:30:32.784Z,5.40
2023-03-16T20:33:01.220Z,5.20
2023-03-16T20:35:32.524Z,5.20
2023-03-16T20:38:01.071Z,5.20
2023-03-16T20:40:29.584Z,5.30
2023-03-16T20:42:57.842Z,5.30
2023-03-16T20:45:28.293Z,5.20
2023-03-16T20:47:57.655Z,5.20
2023-03-16T20:50:28.065Z,5.30
2023-03-16T20:52:58.560Z,5.30
2023-03-16T20:55:29.113Z,5.40
2023-03-16T20:57:58.624Z,5.30
2023-03-16T21:00:31.542Z,5.30
2023-03-16T21:03:01.488Z,5.30
2023-03-16T21:05:30.883Z,5.20
2023-03-16T21:08:01.041Z,5.20
2023-03-16T21:10:31.504Z,5.20
2023-03-16T21:12:59.988Z,5.20
2023-03-16T21:15:33.436Z,5.20
2023-03-16T21:18:06.503Z,5.20
2023-03-16T21:20:36.756Z,5.20
2023-03-16T21:23:12.749Z,5.20
2023-03-16T21:25:49.278Z,5.10
2023-03-16T21:28:19.337Z,5.10
2023-03-16T21:30:50.579Z,5.10
2023-03-16T21:33:24.965Z,5.20
2023-03-16T21:35:53.306Z,5.20
2023-03-16T21:38:24.264Z,5.20
2023-03-16T21:40:53.145Z,5.20
2023-03-16T21:43:21.880Z,5.20
2023-03-16T21:45:53.051Z,5.10
2023-03-16T21:48:24.033Z,5.00
2023-03-16T21:50:54.544Z,5.00
2023-03-16T21:53:27.131Z,5.00
2023-03-16T21:55:57.295Z,5.10
2023-03-16T21:58:26.081Z,5.00
2023-03-16T22:00:57.109Z,5.00
2023-03-16T22:03:37.822Z,4.90
2023-03-16T22:06:16.640Z,4.90
2023-03-16T22:08:46.883Z,4.90
2023-03-16T22:11:17.948Z,4.90
2023-03-16T22:13:46.480Z,4.90
2023-03-16T22:16:17.201Z,4.90
2023-03-16T22:18:47.598Z,4.90
2023-03-16T22:21:26.310Z,4.90
2023-03-16T22:23:57.875Z,4.80
2023-03-16T22:26:27.466Z,4.80
2023-03-16T22:28:57.037Z,4.80
2023-03-16T22:31:33.751Z,5.00
2023-03-16T22:34:05.562Z,5.00
2023-03-16T22:36:35.257Z,5.00
2023-03-16T22:39:12.239Z,5.00
2023-03-16T22:41:40.644Z,5.00
2023-03-16T22:44:20.217Z,5.00
2023-03-16T22:46:51.093Z,5.10
2023-03-16T22:49:22.266Z,5.00
2023-03-16T22:51:53.032Z,4.90
2023-03-16T22:54:27.988Z,4.80
2023-03-16T22:56:56.604Z,4.80
2023-03-16T22:59:28.377Z,4.80
2023-03-16T23:01:57.615Z,4.70
2023-03-16T23:04:30.575Z,4.70
2023-03-16T23:07:00.350Z,4.70
2023-03-16T23:09:30.008Z,4.60
2023-03-16T23:12:03.359Z,4.60
2023-03-16T23:14:37.723Z,4.50
2023-03-16T23:17:07.369Z,4.50
2023-03-16T23:19:36.212Z,4.50
2023-03-16T23:22:06.819Z,4.30
2023-03-16T23:24:36.990Z,4.30
2023-03-16T23:27:06.702Z,4.30
2023-03-16T23:29:35.156Z,4.20
2023-03-16T23:32:04.551Z,4.10
2023-03-16T23:34:32.786Z,4.20
2023-03-16T23:37:01.447Z,4.30
2023-03-16T23:39:30.318Z,4.50
2023-03-16T23:42:00.316Z,4.60
2023-03-16T23:44:30.081Z,4.50
2023-03-16T23:47:00.479Z,4.60
2023-03-16T23:49:31.309Z,4.70
2023-03-16T23:52:01.717Z,4.90
2023-03-16T23:54:31.888Z,4.80
2023-03-16T23:57:02.174Z,4.80
2023-03-16T23:59:31.242Z,5.00
